Time;durP1;ratioP1;P1;durP2;ratioP2;P2;SDS_P1;SDS_P2;PMS_P1;PMS_P2;Temp;Humidity;BMP_temperature;BMP_pressure;BME280_temperature;BME280_humidity;BME280_pressure;Samples;Min_cycle;Max_cycle;Signal;HPM_P1;HPM_P2
2023/01/25 00:04:26;;;;;;;20.52;9.65;;;;;;;;;;5000908;28;20060;-71
2023/01/25 00:09:54;;;;;;;23.35;10.32;;;;;;;;;;5000385;28;20096;-71
2023/01/25 00:27:59;;;;;;;19.30;9.27;;;;;;;;;;5003293;28;20041;-70
2023/01/25 00:33:34;;;;;;;19.42;9.18;;;;;;;;;;5000054;28;20153;-72
2023/01/25 00:42:07;;;;;;;19.25;9.40;;;;;;;;;;5003706;28;20088;-71
2023/01/25 00:47:35;;;;;;;19.48;9.88;;;;;;;;;;4997420;28;20068;-72
2023/01/25 00:53:03;;;;;;;18.35;9.60;;;;;;;;;;5000219;28;20036;-72
2023/01/25 00:58:31;;;;;;;21.40;9.95;;;;;;;;;;5000752;28;20443;-72
2023/01/25 01:03:58;;;;;;;19.50;9.40;;;;;;;;;;5002488;28;20294;-73
2023/01/25 01:09:26;;;;;;;20.83;10.18;;;;;;;;;;5004008;28;20742;-72
2023/01/25 01:21:00;;;;;;;21.13;10.10;;;;;;;;;;4999041;28;20068;-72
2023/01/25 01:32:53;;;;;;;17.52;8.90;;;;;;;;;;4999766;28;20069;-73
2023/01/25 01:38:22;;;;;;;17.02;9.10;;;;;;;;;;5001379;28;20373;-73
2023/01/25 01:40:59;;;;;;;18.60;9.15;;;;;;;;;;4987651;28;20112;-73
2023/01/25 01:43:25;;;;;;;18.88;9.25;;;;;;;;;;4987441;28;20507;-72
2023/01/25 01:45:50;;;;;;;20.42;9.68;;;;;;;;;;5005708;28;20120;-73
2023/01/25 01:48:19;;;;;;;19.95;9.05;;;;;;;;;;4997819;28;20038;-73
2023/01/25 01:50:44;;;;;;;18.83;9.32;;;;;;;;;;4996756;28;20033;-72
2023/01/25 01:53:10;;;;;;;18.50;9.63;;;;;;;;;;4998158;28;20445;-73
2023/01/25 01:55:36;;;;;;;20.23;9.60;;;;;;;;;;5001264;28;20041;-73
2023/01/25 01:58:02;;;;;;;20.38;9.90;;;;;;;;;;5003837;28;20036;-72
2023/01/25 02:00:36;;;;;;;20.35;10.02;;;;;;;;;;4999392;28;20095;-73
2023/01/25 02:03:01;;;;;;;21.90;9.02;;;;;;;;;;5003153;28;20543;-73
2023/01/25 02:05:45;;;;;;;20.52;9.60;;;;;;;;;;5000556;28;20161;-73
2023/01/25 02:08:12;;;;;;;18.48;9.63;;;;;;;;;;4996953;28;20080;-73
2023/01/25 02:10:37;;;;;;;22.30;9.90;;;;;;;;;;4993124;28;20029;-73
2023/01/25 02:13:03;;;;;;;21.48;10.02;;;;;;;;;;5007421;28;20065;-73
2023/01/25 02:15:32;;;;;;;22.57;9.97;;;;;;;;;;5001028;28;20460;-72
2023/01/25 02:17:57;;;;;;;17.60;8.82;;;;;;;;;;5003258;28;20298;-73
2023/01/25 02:20:32;;;;;;;20.33;9.40;;;;;;;;;;5004498;28;20102;-73
2023/01/25 02:22:57;;;;;;;20.58;9.38;;;;;;;;;;5003345;28;20387;-73
2023/01/25 02:25:22;;;;;;;20.52;9.93;;;;;;;;;;5006072;28;20021;-72
2023/01/25 02:27:52;;;;;;;20.38;9.95;;;;;;;;;;4989531;28;20026;-73
2023/01/25 02:30:18;;;;;;;17.92;9.27;;;;;;;;;;5002691;28;20030;-73
2023/01/25 02:32:43;;;;;;;20.83;9.77;;;;;;;;;;5003773;28;20034;-74
2023/01/25 02:35:18;;;;;;;19.17;9.48;;;;;;;;;;5003292;28;20022;-74
2023/01/25 02:37:43;;;;;;;22.45;10.52;;;;;;;;;;5004703;28;20115;-73
2023/01/25 02:40:09;;;;;;;19.23;9.63;;;;;;;;;;4991391;28;20192;-74
2023/01/25 02:42:34;;;;;;;19.90;9.70;;;;;;;;;;4997101;28;20038;-72
2023/01/25 02:44:59;;;;;;;19.17;9.60;;;;;;;;;;5006966;28;20050;-71
2023/01/25 02:47:25;;;;;;;20.40;10.07;;;;;;;;;;5005181;28;20034;-72
2023/01/25 02:49:50;;;;;;;20.47;9.27;;;;;;;;;;5003735;28;20560;-72
2023/01/25 02:52:15;;;;;;;18.50;9.30;;;;;;;;;;5005492;28;20109;-72
2023/01/25 02:54:40;;;;;;;20.83;10.37;;;;;;;;;;5003469;28;20062;-72
2023/01/25 02:57:06;;;;;;;23.75;10.57;;;;;;;;;;5003892;28;20096;-72
2023/01/25 02:59:32;;;;;;;20.33;10.02;;;;;;;;;;5008967;28;20080;-73
2023/01/25 03:01:57;;;;;;;19.47;8.70;;;;;;;;;;4989158;28;20034;-72
2023/01/25 03:04:22;;;;;;;18.40;9.53;;;;;;;;;;5004494;28;20033;-73
2023/01/25 03:06:48;;;;;;;19.85;9.73;;;;;;;-144.91;nan;118633.84;5004517;28;20294;-73
2023/01/25 03:09:13;;;;;;;20.40;9.63;;;;;;;;;;5002357;28;20034;-71
2023/01/25 03:11:38;;;;;;;21.17;10.20;;;;;;;;;;5005471;28;20033;-73
2023/01/25 03:14:03;;;;;;;27.17;9.60;;;;;;;;;;5006556;28;20021;-73
2023/01/25 03:16:29;;;;;;;20.08;9.85;;;;;;;;;;4993381;28;20291;-72
2023/01/25 03:18:55;;;;;;;20.13;9.70;;;;;;;;;;5005492;28;20339;-70
2023/01/25 03:21:21;;;;;;;19.38;9.13;;;;;;;;;;4990014;28;20708;-72
2023/01/25 03:23:47;;;;;;;19.02;9.98;;;;;;;;;;5000253;28;20469;-72
2023/01/25 03:26:17;;;;;;;18.70;9.43;;;;;;;;;;5002964;28;20105;-72
2023/01/25 03:28:42;;;;;;;22.98;9.65;;;;;;;;;;5006767;28;20136;-72
2023/01/25 03:31:09;;;;;;;21.90;9.80;;;;;;;;;;4991835;28;20113;-71
2023/01/25 03:33:34;;;;;;;20.17;10.02;;;;;;;;;;5003401;28;20047;-73
2023/01/25 03:35:59;;;;;;;22.17;9.97;;;;;;;;;;5003741;28;20701;-73
2023/01/25 03:38:25;;;;;;;19.10;9.00;;;;;;;;;;5003127;28;20333;-74
2023/01/25 03:40:50;;;;;;;20.40;9.43;;;;;;;;;;4992041;28;20036;-74
2023/01/25 03:43:16;;;;;;;19.60;9.93;;;;;;;;;;5003324;28;20169;-72
2023/01/25 03:45:41;;;;;;;21.48;9.63;;;;;;;;;;5001042;28;20116;-73
2023/01/25 03:48:06;;;;;;;22.40;10.23;;;;;;;;;;5005436;28;20025;-72
2023/01/25 03:50:31;;;;;;;19.90;10.07;;;;;;;;;;5003450;28;20431;-73
2023/01/25 03:53:08;;;;;;;22.60;10.25;;;;;;;;;;5001697;28;20018;-73
2023/01/25 03:55:34;;;;;;;20.75;9.82;;;;;;;;;;4998357;28;20074;-71
2023/01/25 03:57:59;;;;;;;22.45;10.48;;;;;;;;;;5002595;28;20104;-73
2023/01/25 04:00:24;;;;;;;22.10;10.37;;;;;;;;;;5000617;28;20034;-73
2023/01/25 04:02:49;;;;;;;20.40;10.43;;;;;;;;;;5007030;28;20033;-73
2023/01/25 04:05:15;;;;;;;21.70;10.67;;;;;;;;;;5000705;28;20503;-73
2023/01/25 04:07:40;;;;;;;21.43;11.23;;;;;;;;;;5001029;28;20291;-73
2023/01/25 04:10:06;;;;;;;21.70;10.45;;;;;;;;;;4983744;28;20279;-73
2023/01/25 04:12:31;;;;;;;21.38;10.27;;;;;;;;;;4991325;28;20029;-72
2023/01/25 04:14:57;;;;;;;19.67;9.93;;;;;;;;;;4999358;28;20046;-73
2023/01/25 04:17:22;;;;;;;21.47;9.90;;;;;;;;;;4998948;28;20480;-71
2023/01/25 04:19:48;;;;;;;20.60;10.37;;;;;;;;;;5000610;28;20361;-72
2023/01/25 04:22:13;;;;;;;22.25;10.65;;;;;;;;;;5000613;28;20381;-72
2023/01/25 04:24:39;;;;;;;19.95;10.32;;;;;;;;;;4987338;28;20030;-72
2023/01/25 04:27:04;;;;;;;22.67;10.77;;;;;;;;;;4999981;28;20459;-72
2023/01/25 04:29:29;;;;;;;22.17;11.07;;;;;;;;;;5004270;28;20026;-73
2023/01/25 04:31:55;;;;;;;21.97;11.27;;;;;;;;;;4998573;28;20025;-72
2023/01/25 04:34:20;;;;;;;21.48;10.77;;;;;;;;;;5002162;28;20290;-72
2023/01/25 04:36:45;;;;;;;28.80;13.43;;;;;;;;;;4988321;28;20042;-72
2023/01/25 04:39:10;;;;;;;29.20;12.73;;;;;;;;;;5001835;28;20345;-72
2023/01/25 04:41:36;;;;;;;22.77;11.60;;;;;;;;;;4990128;28;21776;-72
2023/01/25 04:44:01;;;;;;;24.70;11.30;;;;;;;;;;4983046;28;20036;-71
2023/01/25 04:46:26;;;;;;;22.70;10.90;;;;;;;;;;5002169;28;20581;-71
2023/01/25 04:48:51;;;;;;;22.53;10.40;;;;;;;;;;5000108;28;20376;-72
2023/01/25 04:51:17;;;;;;;25.47;10.97;;;;;;;;;;5003829;28;20084;-72
2023/01/25 04:53:42;;;;;;;22.77;10.70;;;;;;;;;;5000926;28;20283;-71
2023/01/25 04:56:07;;;;;;;24.77;10.37;;;;;;;;;;5001370;28;20032;-72
2023/01/25 04:58:32;;;;;;;24.40;10.77;;;;;;;;;;4999906;28;20650;-71
2023/01/25 05:01:01;;;;;;;25.33;11.43;;;;;;;;;;4980979;28;20287;-74
2023/01/25 05:03:27;;;;;;;25.90;12.45;;;;;;;;;;5001257;28;20291;-74
2023/01/25 05:05:52;;;;;;;25.92;12.30;;;;;;;;;;4999490;28;20500;-72
2023/01/25 05:08:17;;;;;;;32.47;13.85;;;;;;;;;;5001026;28;20052;-71
2023/01/25 05:10:43;;;;;;;34.17;15.48;;;;;;;;;;4999560;28;20050;-71
2023/01/25 05:13:08;;;;;;;54.85;22.08;;;;;;;;;;5002385;28;20104;-72
2023/01/25 05:15:33;;;;;;;53.47;22.30;;;;;;;;;;5000398;28;20129;-72
2023/01/25 05:17:59;;;;;;;82.20;35.03;;;;;;;;;;4998851;28;20345;-71
2023/01/25 05:20:24;;;;;;;84.17;33.93;;;;;;;;;;4997952;28;20279;-72
2023/01/25 05:22:49;;;;;;;70.47;32.80;;;;;;;;;;5002681;28;20567;-72
2023/01/25 05:27:58;;;;;;;65.07;28.52;;;;;;;;;;5000177;28;20050;-70
2023/01/25 05:30:24;;;;;;;58.60;24.37;;;;;;;;;;5001349;28;20026;-71
2023/01/25 05:32:49;;;;;;;54.90;23.07;;;;;;;;;;5000695;28;20033;-72
2023/01/25 05:35:15;;;;;;;46.10;21.05;;;;;;;;;;5001423;28;20049;-72
2023/01/25 05:37:40;;;;;;;41.97;19.10;;;;;;;;;;5000756;28;20475;-71
2023/01/25 05:40:06;;;;;;;37.40;16.93;;;;;;;;;;4989760;28;20545;-72
2023/01/25 05:42:31;;;;;;;35.75;16.80;;;;;;;;;;4995465;28;20353;-74
2023/01/25 05:44:56;;;;;;;38.57;16.90;;;;;;;;;;4999529;28;20025;-74
2023/01/25 05:47:21;;;;;;;32.33;14.83;;;;;;;;;;4982010;28;20061;-74
2023/01/25 05:49:47;;;;;;;31.87;14.47;;;;;;;;;;4998258;28;20298;-74
2023/01/25 05:52:13;;;;;;;27.60;13.77;;;;;;;;;;5005115;28;20310;-73
2023/01/25 05:54:38;;;;;;;31.80;14.20;;;;;;;;;;5003904;28;20633;-74
2023/01/25 05:57:03;;;;;;;26.27;12.93;;;;;;;;;;4999754;28;20057;-74
2023/01/25 05:59:29;;;;;;;29.97;12.87;;;;;;;;;;4995765;28;20473;-74
2023/01/25 06:01:54;;;;;;;29.50;13.37;;;;;;;;;;4990725;28;20340;-73
2023/01/25 06:04:19;;;;;;;32.97;12.53;;;;;;;;;;4987102;28;21265;-74
2023/01/25 06:06:44;;;;;;;24.67;11.90;;;;;;;;;;5000338;28;20302;-74
2023/01/25 06:09:11;;;;;;;27.75;13.00;;;;;;;;;;5000628;28;20353;-74
2023/01/25 06:11:36;;;;;;;30.15;12.93;;;;;;;;;;4988542;28;20053;-72
2023/01/25 06:14:02;;;;;;;28.05;12.52;;;;;;;;;;4997244;28;20022;-73
2023/01/25 06:16:27;;;;;;;28.33;12.70;;;;;;;;;;5000626;28;20053;-73
2023/01/25 06:18:52;;;;;;;26.13;12.73;;;;;;;;;;4990217;28;20158;-75
2023/01/25 06:21:17;;;;;;;27.47;11.57;;;;;;;;;;4983154;28;20061;-72
2023/01/25 06:23:43;;;;;;;30.23;12.68;;;;;;;;;;5000318;28;20276;-74
2023/01/25 06:26:10;;;;;;;35.05;14.10;;;;;;;;;;5003540;28;20476;-74
2023/01/25 06:28:36;;;;;;;29.13;12.88;;;;;;;;;;5003035;28;20069;-79
2023/01/25 06:31:04;;;;;;;32.28;13.63;;;;;;;;;;4987810;28;20018;-73
2023/01/25 06:33:29;;;;;;;30.27;11.98;;;;;;;;;;4997565;28;20064;-73
2023/01/25 06:35:58;;;;;;;32.38;12.05;;;;;;;;;;4999977;28;20551;-75
2023/01/25 06:38:23;;;;;;;37.72;12.63;;;;;;;;;;4997699;28;20042;-75
2023/01/25 06:40:48;;;;;;;27.50;12.17;;;;;;;;;;4987215;28;20034;-75
2023/01/25 06:43:14;;;;;;;30.40;12.73;;;;;;;;;;4987389;28;21905;-76
2023/01/25 06:45:39;;;;;;;41.60;13.90;;;;;;;;;;5002433;28;20287;-73
2023/01/25 06:48:04;;;;;;;28.77;13.27;;;;;;;;;;5000774;28;20279;-75
2023/01/25 06:50:32;;;;;;;34.15;15.23;;;;;;;;;;4988878;28;20074;-74
2023/01/25 06:52:57;;;;;;;37.50;15.70;;;;;;;;;;5002942;28;20034;-75
2023/01/25 06:55:23;;;;;;;33.53;15.63;;;;;;;;;;5001467;28;20030;-75
2023/01/25 06:57:48;;;;;;;32.15;14.65;;;;;;;;;;4990270;28;20085;-73
2023/01/25 07:00:14;;;;;;;35.88;14.18;;;;;;;;;;5004678;28;20409;-75
2023/01/25 07:02:39;;;;;;;33.95;15.43;;;;;;;;;;4990526;28;20108;-77
2023/01/25 07:05:05;;;;;;;33.70;14.35;;;;;;;;;;4991688;28;20116;-75
2023/01/25 07:07:30;;;;;;;271.17;57.35;;;;;;;;;;5001669;28;20109;-75
2023/01/25 07:09:55;;;;;;;47.67;18.50;;;;;;;;;;5004430;28;20041;-74
2023/01/25 07:12:21;;;;;;;37.70;16.30;;;;;;;;;;5635774;23;20318;-74
2023/01/25 07:14:48;;;;;;;35.47;14.68;;;;;;;;;;5021478;28;20048;-77
2023/01/25 07:17:13;;;;;;;32.83;14.65;;;;;;;;;;5029745;28;20112;-78
2023/01/25 07:19:39;;;;;;;28.80;13.85;;;;;;;;;;5029963;28;20144;-75
2023/01/25 07:22:04;;;;;;;32.28;14.07;;;;;;;;;;5028630;28;20187;-77
2023/01/25 07:24:29;;;;;;;34.72;14.98;;;;;;;;;;5011382;28;20025;-77
2023/01/25 07:26:54;;;;;;;32.47;13.02;;;;;;;;;;5012103;28;20022;-76
2023/01/25 07:29:20;;;;;;;26.05;13.02;;;;;;;;;;5025933;28;20034;-77
2023/01/25 07:31:45;;;;;;;25.70;12.27;;;;;;;;;;5025943;28;20025;-76
2023/01/25 07:34:11;;;;;;;30.67;13.73;;;;;;;;;;5026619;28;20402;-76
2023/01/25 07:36:37;;;;;;;32.67;13.65;;;;;;;;;;5027588;28;20262;-76
2023/01/25 07:39:02;;;;;;;31.92;13.30;;;;;;;;;;5009060;28;20088;-77
2023/01/25 07:41:28;;;;;;;32.23;13.97;;;;;;;;;;5029994;28;20378;-78
2023/01/25 07:43:53;;;;;;;33.28;14.02;;;;;;;;;;5024388;28;20326;-77
2023/01/25 07:46:19;;;;;;;29.92;13.27;;;;;;;;;;5005225;28;20057;-78
2023/01/25 07:48:46;;;;;;;33.05;13.32;;;;;;;;;;5028693;28;20183;-78
2023/01/25 07:51:11;;;;;;;28.70;13.27;;;;;;;;;;5031136;28;20454;-77
2023/01/25 07:53:40;;;;;;;35.00;13.43;;;;;;;;;;5032464;28;20068;-76
2023/01/25 07:56:06;;;;;;;29.00;13.10;;;;;;;;;;5027317;28;20068;-77
2023/01/25 07:58:31;;;;;;;41.00;13.27;;;;;;;;;;5026255;28;20025;-77
2023/01/25 08:00:56;;;;;;;33.90;13.77;;;;;;;;;;5028526;28;20055;-76
2023/01/25 08:03:22;;;;;;;29.73;13.43;;;;;;;;;;5027685;28;20441;-77
2023/01/25 08:05:47;;;;;;;30.07;13.77;;;;;;;;;;5028741;28;20286;-76
2023/01/25 08:08:13;;;;;;;34.67;14.82;;;;;;;;;;5027181;28;20033;-78
2023/01/25 08:10:38;;;;;;;36.45;14.45;;;;;;;;;;5028035;28;20500;-76
2023/01/25 08:13:05;;;;;;;33.15;15.00;;;;;;;;;;5029089;28;20121;-76
2023/01/25 08:15:30;;;;;;;31.80;14.98;;;;;;;;;;5029976;28;20029;-75
2023/01/25 08:17:58;;;;;;;33.40;15.83;;;;;;;;;;5025298;28;20174;-75
2023/01/25 08:20:24;;;;;;;33.33;14.32;;;;;;;;;;5026581;28;20539;-78
2023/01/25 08:22:50;;;;;;;32.78;14.63;;;;;;;;;;5024235;28;20025;-75
2023/01/25 08:25:15;;;;;;;33.50;14.63;;;;;;;;;;5026304;28;20146;-75
2023/01/25 08:27:41;;;;;;;35.25;15.02;;;;;;;;;;5026972;28;20517;-77
2023/01/25 08:30:07;;;;;;;36.92;15.07;;;;;;;;;;5024997;28;20291;-77
2023/01/25 08:32:33;;;;;;;30.27;14.35;;;;;;;;;;5027088;28;20056;-77
2023/01/25 08:34:59;;;;;;;37.67;15.40;;;;;;;;;;5028327;28;20359;-76
2023/01/25 08:37:28;;;;;;;33.40;14.70;;;;;;;;;;5012311;28;20036;-76
2023/01/25 08:39:55;;;;;;;38.58;16.10;;;;;;;;;;5025033;28;20278;-78
2023/01/25 08:42:21;;;;;;;44.40;16.30;;;;;;;;;;5010633;28;20045;-76
2023/01/25 08:44:46;;;;;;;40.80;15.07;;;;;;;;;;5011427;28;20079;-78
2023/01/25 08:47:11;;;;;;;31.37;14.77;;;;;;;;;;5029891;28;20021;-77
2023/01/25 08:49:37;;;;;;;32.83;14.87;;;;;;;;;;5027248;28;20514;-78
2023/01/25 08:52:02;;;;;;;31.80;15.18;;;;;;;;;;5028249;28;20492;-78
2023/01/25 08:54:27;;;;;;;33.40;15.32;;;;;;;;;;5029838;28;20427;-77
2023/01/25 08:56:53;;;;;;;33.00;14.95;;;;;;;;;;5018513;28;20546;-77
2023/01/25 08:59:18;;;;;;;33.65;15.65;;;;;;;;;;5030793;28;20560;-78
2023/01/25 09:01:43;;;;;;;38.83;16.58;;;;;;;;;;5027859;28;20025;-77
2023/01/25 09:04:09;;;;;;;38.08;15.45;;;;;;;;;;5028922;28;20466;-77
2023/01/25 09:06:34;;;;;;;43.38;16.58;;;;;;;;;;5028716;28;20087;-77
2023/01/25 09:08:59;;;;;;;42.10;16.90;;;;;;;;;;5028701;28;20025;-77
2023/01/25 09:11:25;;;;;;;38.40;17.40;;;;;;;;;;5022593;28;20108;-77
2023/01/25 09:13:50;;;;;;;36.40;15.70;;;;;;;;;;5026145;28;20325;-77
2023/01/25 09:16:17;;;;;;;31.08;14.60;;;;;;;;;;5026338;28;20153;-76
2023/01/25 09:18:43;;;;;;;35.38;14.90;;;;;;;;;;5003760;28;20060;-77
2023/01/25 09:21:09;;;;;;;35.80;15.23;;;;;;;;;;5024666;28;20388;-76
2023/01/25 09:23:35;;;;;;;31.83;14.50;;;;;;;;;;5026868;28;20078;-77
2023/01/25 09:26:00;;;;;;;29.85;14.13;;;;;;;;;;5020766;28;20029;-77
2023/01/25 09:28:28;;;;;;;35.08;14.88;;;;;;;;;;5018577;28;20022;-75
2023/01/25 09:31:02;;;;;;;32.58;15.23;;;;;;;;;;5023503;28;20035;-76
2023/01/25 09:33:29;;;;;;;34.42;14.15;;;;;;;;;;5024262;28;20036;-77
2023/01/25 09:35:54;;;;;;;32.22;14.93;;;;;;;;;;5013734;28;20726;-77
2023/01/25 09:38:20;;;;;;;39.60;15.37;;;;;;;;;;5028997;28;20033;-77
2023/01/25 09:40:52;;;;;;;36.75;15.90;;;;;;;;;;5025619;28;20282;-76
2023/01/25 09:43:35;;;;;;;36.63;15.35;;;;;;;;;;5024467;28;20053;-75
2023/01/25 09:46:07;;;;;;;34.17;14.10;;;;;;;;;;5027891;28;20396;-76
2023/01/25 09:48:37;;;;;;;35.78;13.73;;;;;;;;;;5026842;28;20053;-76
2023/01/25 09:51:06;;;;;;;34.72;13.80;;;;;;;;;;5006357;28;20111;-76
2023/01/25 09:53:39;;;;;;;32.72;14.80;;;;;;;;;;5019926;28;20482;-76
2023/01/25 09:56:12;;;;;;;33.38;14.85;;;;;;;;;;5023663;28;20037;-77
2023/01/25 09:58:45;;;;;;;36.47;14.43;;;;;;;;;;5026589;28;20028;-76
2023/01/25 10:01:26;;;;;;;32.28;14.13;;;;;;;;;;5024787;28;20646;-76
2023/01/25 10:03:53;;;;;;;36.92;14.65;;;;;;;;;;5023567;28;20030;-75
2023/01/25 10:06:22;;;;;;;31.17;13.32;;;;;;;;;;5037181;28;20029;-74
2023/01/25 10:08:55;;;;;;;29.95;13.25;;;;;;;;;;5029990;28;20429;-76
2023/01/25 10:11:25;;;;;;;32.78;13.82;;;;;;;;;;5025039;28;20032;-76
2023/01/25 10:13:51;;;;;;;31.55;13.98;;;;;;;;;;5005190;28;20052;-77
2023/01/25 10:16:21;;;;;;;31.58;13.93;;;;;;;;;;5022946;28;20525;-74
2023/01/25 10:19:05;;;;;;;28.98;13.27;;;;;;;;;;5025529;28;20514;-74
2023/01/25 10:21:53;;;;;;;29.73;13.20;;;;;;;;;;5027421;28;20037;-74
2023/01/25 10:24:37;;;;;;;27.95;12.15;;;;;;;;;;5009720;28;20030;-74
2023/01/25 10:27:12;;;;;;;29.60;12.93;;;;;;;;;;5027234;28;20607;-73
2023/01/25 10:29:37;;;;;;;28.52;13.38;;;;;;;;;;5028605;28;20458;-74
2023/01/25 10:32:22;;;;;;;29.70;12.02;;;;;;;;;;5030514;28;20057;-75
2023/01/25 10:34:49;;;;;;;32.83;13.10;;;;;;;;;;5013512;28;20052;-74
2023/01/25 10:37:19;;;;;;;32.67;13.30;;;;;;;;;;5031240;28;20143;-75
2023/01/25 10:39:51;;;;;;;33.75;14.50;;;;;;;;;;5022499;28;20029;-74
2023/01/25 10:42:17;;;;;;;31.55;14.60;;;;;;;;;;5014637;28;20814;-75
2023/01/25 10:44:42;;;;;;;29.65;13.55;;;;;;;;;;5014626;28;20274;-75
2023/01/25 10:47:27;;;;;;;24.87;11.67;;;;;;;;;;5032613;28;20029;-75
2023/01/25 10:49:57;;;;;;;27.98;13.05;;;;;;;;;;5014154;28;20271;-75
2023/01/25 10:52:22;;;;;;;;;;;;;;;;;;5014861;28;20039;-74
2023/01/25 10:54:51;;;;;;;30.37;12.43;;;;;;;;;;5034748;28;19920;-76
2023/01/25 10:57:18;;;;;;;29.70;12.23;;;;;;;;;;5033152;28;20079;-76
2023/01/25 10:59:45;;;;;;;26.27;12.27;;;;;;;;;;5032128;28;20026;-76
2023/01/25 11:02:28;;;;;;;30.08;12.98;;;;;;;;;;5031194;28;20028;-76
2023/01/25 11:04:53;;;;;;;27.45;12.98;;;;;;;;;;5032287;28;20052;-76
2023/01/25 11:07:25;;;;;;;30.57;12.40;;;;;;;;;;5032108;28;20056;-76
2023/01/25 11:09:50;;;;;;;28.45;12.63;;;;;;;;;;5031926;28;20270;-75
2023/01/25 11:12:17;;;;;;;30.35;12.98;;;;;;;;;;5030797;28;20417;-75
2023/01/25 11:14:42;;;;;;;30.92;13.65;;;;;;;;;;5031715;28;20458;-75
2023/01/25 11:17:19;;;;;;;26.92;12.45;;;;;;;;;;5031605;28;20059;-76
2023/01/25 11:19:44;;;;;;;30.45;12.55;;;;;;;;;;5030692;28;20029;-76
2023/01/25 11:22:19;;;;;;;29.17;12.43;;;;;;;;;;5031680;28;20554;-75
2023/01/25 11:24:44;;;;;;;29.67;12.73;;;;;;;;;;5031131;28;20025;-77
2023/01/25 11:27:11;;;;;;;28.35;12.20;;;;;;;;;;5030758;28;20028;-75
2023/01/25 11:29:36;;;;;;;23.77;11.50;;;;;;;;;;5031474;28;20032;-75
2023/01/25 11:32:02;;;;;;;25.00;11.60;;;;;;;;;;5031103;28;20025;-75
2023/01/25 11:34:28;;;;;;;29.70;12.45;;;;;;;;;;5029348;28;21098;-75
2023/01/25 11:36:56;;;;;;;27.92;12.63;;;;;;;;;;5028797;28;20037;-75
2023/01/25 11:39:34;;;;;;;29.63;12.38;;;;;;;;;;5013994;28;20048;-74
2023/01/25 11:41:59;;;;;;;30.88;12.57;;;;;;;;;;5031383;28;20360;-75
2023/01/25 11:44:47;;;;;;;26.73;11.57;;;;;;;;;;5011587;28;20074;-75
2023/01/25 11:47:35;;;;;;;23.27;11.38;;;;;;;;;;5000531;28;20325;-75
2023/01/25 11:50:27;;;;;;;24.88;11.23;;;;;;;;;;5028074;28;20429;-73
2023/01/25 11:53:11;;;;;;;23.02;10.90;;;;;;;;;;4995064;28;20033;-73
2023/01/25 11:55:43;;;;;;;25.05;10.77;;;;;;;;;;5030931;28;20025;-73
2023/01/25 11:58:20;;;;;;;23.60;11.13;;;;;;;;;;5015125;28;20156;-74
2023/01/25 12:01:05;;;;;;;30.70;13.65;;;;;;;;;;5029831;28;20108;-74
2023/01/25 12:03:45;;;;;;;29.65;12.70;;;;;;;;;;5029876;28;20104;-74
2023/01/25 12:06:13;;;;;;;27.95;12.02;;;;;;;;;;5011767;28;20079;-75
2023/01/25 12:08:53;;;;;;;22.67;11.52;;;;;;;;;;5029445;28;20023;-75
2023/01/25 12:11:35;;;;;;;22.00;10.57;;;;;;;;;;5030423;28;20116;-74
2023/01/25 12:14:12;;;;;;;27.58;12.70;;;;;;;;;;5031017;28;20541;-74
2023/01/25 12:16:37;;;;;;;31.85;13.20;;;;;;;;;;5031057;28;20140;-73
2023/01/25 12:19:18;;;;;;;28.67;14.57;;;;;;;;;;5013543;28;20021;-74
2023/01/25 12:22:02;;;;;;;30.40;13.20;;;;;;;;;;5030345;28;20029;-74
2023/01/25 12:24:32;;;;;;;25.33;12.57;;;;;;;;;;5029700;28;20100;-74
2023/01/25 12:27:06;;;;;;;28.45;12.45;;;;;;;;;;5011974;28;20060;-74
2023/01/25 12:29:35;;;;;;;34.90;14.38;;;;;;;;;;5030563;28;20029;-73
2023/01/25 12:32:07;;;;;;;29.23;13.30;;;;;;;;;;5030112;28;20017;-73
2023/01/25 12:34:41;;;;;;;34.92;13.85;;;;;;;;;;5008415;28;20143;-73
2023/01/25 12:37:12;;;;;;;33.20;13.82;;;;;;;;;;5007822;28;20029;-73
2023/01/25 12:39:41;;;;;;;30.65;14.10;;;;;;;;;;5029319;28;20018;-73
2023/01/25 12:42:09;;;;;;;31.73;13.27;;;;;;;;;;5029575;28;20067;-73
2023/01/25 12:44:51;;;;;;;31.90;13.45;;;;;;;;;;5010173;28;20026;-73
2023/01/25 12:47:31;;;;;;;28.83;13.82;;;;;;;;;;5013733;28;20041;-74
2023/01/25 12:50:08;;;;;;;32.55;14.13;;;;;;;;;;5012694;28;20029;-73
2023/01/25 12:52:37;;;;;;;31.15;14.10;;;;;;;;;;5027200;28;20056;-73
2023/01/25 12:55:04;;;;;;;31.85;14.35;;;;;;;;;;5008029;28;20041;-72
2023/01/25 12:57:42;;;;;;;32.00;14.77;;;;;;;;;;5028745;28;20056;-72
2023/01/25 13:00:17;;;;;;;36.88;14.63;;;;;;;;;;5024064;28;20027;-73
2023/01/25 13:02:49;;;;;;;35.47;14.07;;;;;;;;;;5026719;28;20509;-72
2023/01/25 13:05:21;;;;;;;33.38;14.77;;;;;;;;;;5007879;28;20133;-73
2023/01/25 13:08:12;;;;;;;34.38;15.55;;;;;;;;;;5011104;28;20483;-76
2023/01/25 13:10:58;;;;;;;35.15;15.27;;;;;;;;;;5023719;28;20045;-75
2023/01/25 13:13:25;;;;;;;32.40;14.02;;;;;;;;;;4977541;28;20103;-74
2023/01/25 13:15:51;;;;;;;34.05;15.15;;;;;;;;;;5012755;28;20033;-72
2023/01/25 13:18:30;;;;;;;30.30;14.52;;;;;;;;;;5009969;28;20164;-75
2023/01/25 13:20:57;;;;;;;34.55;14.43;;;;;;;;;;5029661;28;20130;-74
2023/01/25 13:23:31;;;;;;;30.52;13.27;;;;;;;;;;5026660;28;20111;-74
2023/01/25 13:26:32;;;;;;;33.90;15.35;;;;;;;;;;5026928;28;20029;-74
2023/01/25 13:28:59;;;;;;;38.03;14.52;;;;;;;;;;4929459;29;20023;-74
2023/01/25 13:31:36;;;;;;;31.27;13.95;;;;;;;;;;4941524;28;20044;-76
2023/01/25 13:34:02;;;;;;;38.75;15.32;;;;;;;;;;4928299;29;20042;-75
2023/01/25 13:36:43;;;;;;;36.90;14.63;;;;;;;;;;4933405;28;20047;-74
2023/01/25 13:39:23;;;;;;;28.85;13.10;;;;;;;;;;4925583;29;20031;-75
2023/01/25 13:41:58;;;;;;;37.13;14.77;;;;;;;;;;4945656;28;20034;-73
2023/01/25 13:44:27;;;;;;;35.50;14.85;;;;;;;;;;4929436;28;20065;-76
2023/01/25 13:46:52;;;;;;;32.90;14.10;;;;;;;;;;4950551;28;20019;-75
2023/01/25 13:49:21;;;;;;;32.22;13.80;;;;;;;;;;4945955;28;20110;-76
2023/01/25 13:51:47;;;;;;;32.03;13.23;;;;;;;;;;4947929;28;20114;-75
2023/01/25 13:54:16;;;;;;;38.33;14.20;;;;;;;;;;4944871;28;20178;-77
2023/01/25 13:56:42;;;;;;;31.57;13.50;;;;;;;;;;4941940;28;20046;-75
2023/01/25 13:59:22;;;;;;;31.45;14.10;;;;;;;;;;4945658;28;20490;-77
2023/01/25 14:01:47;;;;;;;31.45;14.35;;;;;;;;;;4932053;28;20035;-76
2023/01/25 14:04:13;;;;;;;34.45;14.10;;;;;;;;;;5027787;28;20505;-77
2023/01/25 14:06:39;;;;;;;30.92;14.18;;;;;;;;;;5005188;28;20415;-75
2023/01/25 14:09:24;;;;;;;38.53;15.38;;;;;;;;;;5008983;28;20124;-74
2023/01/25 14:11:52;;;;;;;29.98;13.80;;;;;;;;;;4981617;28;20072;-73
2023/01/25 14:14:28;;;;;;;37.17;15.35;;;;;;;;;;5010913;28;20380;-73
2023/01/25 14:17:00;;;;;;;37.67;16.15;;;;;;;;;;5006506;28;20021;-74
2023/01/25 14:19:28;;;;;;;39.47;17.05;;;;;;;;;;5014859;28;20446;-74
2023/01/25 14:22:14;;;;;;;36.17;15.57;;;;;;;;;;5028507;28;20447;-74
2023/01/25 14:24:39;;;;;;;32.40;14.40;;;;;;;;;;4995812;28;20136;-75
2023/01/25 14:27:05;;;;;;;35.95;15.40;;;;;;;;;;5029523;28;20522;-75
2023/01/25 14:29:32;;;;;;;32.45;14.32;;;;;;;;;;5031697;28;20025;-74
2023/01/25 14:31:58;;;;;;;36.90;15.30;;;;;;;;;;5013026;28;20024;-76
2023/01/25 14:34:25;;;;;;;34.53;13.63;;;;;;;;;;5023118;28;20045;-74
2023/01/25 14:37:03;;;;;;;35.83;15.82;;;;;;;;;;5005424;28;20021;-69
2023/01/25 14:39:28;;;;;;;34.67;14.70;;;;;;;;;;5010692;28;20056;-71
2023/01/25 14:41:54;;;;;;;36.13;15.13;;;;;;;;;;5026461;28;20021;-72
2023/01/25 14:44:20;;;;;;;46.10;16.63;;;;;;;;;;5012669;28;20068;-72
2023/01/25 14:46:55;;;;;;;36.95;16.45;;;;;;;;;;5014309;28;20085;-69
2023/01/25 14:49:24;;;;;;;38.90;17.00;;;;;;;;;;4993577;28;20463;-73
2023/01/25 14:51:55;;;;;;;50.90;19.70;;;;;;;;;;5010529;28;20033;-72
2023/01/25 14:54:28;;;;;;;45.53;18.15;;;;;;;;;;5008985;28;20072;-72
2023/01/25 14:56:53;;;;;;;50.65;19.15;;;;;;;;;;5007548;28;20549;-73
2023/01/25 14:59:27;;;;;;;40.60;16.90;;;;;;;;;;5007542;28;20034;-76
2023/01/25 15:01:54;;;;;;;36.45;15.52;;;;;;;;;;5009361;28;20100;-74
2023/01/25 15:04:20;;;;;;;37.72;16.40;;;;;;;;;;4988877;28;20061;-73
2023/01/25 15:06:55;;;;;;;44.97;17.92;;;;;;;;;;5006506;28;20640;-73
2023/01/25 15:09:38;;;;;;;35.55;15.50;;;;;;;;;;5006011;28;20024;-75
2023/01/25 15:12:15;;;;;;;42.30;17.08;;;;;;;;;;5007471;28;20056;-74
2023/01/25 15:14:51;;;;;;;44.65;17.92;;;;;;;;;;5009002;28;20544;-72
2023/01/25 15:17:39;;;;;;;43.47;16.98;;;;;;;;;;5007546;28;20061;-73
2023/01/25 15:20:04;;;;;;;44.20;17.75;;;;;;;;;;4990160;28;20029;-71
2023/01/25 15:22:30;;;;;;;41.97;17.02;;;;;;;;;;4992032;28;20033;-73
2023/01/25 15:24:55;;;;;;;41.50;17.02;;;;;;;;;;5009320;28;20034;-72
2023/01/25 15:27:21;;;;;;;51.47;21.25;;;;;;;;;;5008160;28;20503;-72
2023/01/25 15:29:46;;;;;;;57.27;25.03;;;;;;;;;;5009345;28;20041;-73
2023/01/25 15:32:17;;;;;;;51.38;19.80;;;;;;;;;;5009497;28;20129;-73
2023/01/25 15:34:43;;;;;;;61.22;24.50;;;;;;;;;;4990825;28;20029;-72
2023/01/25 15:37:08;;;;;;;58.55;24.95;;;;;;;;;;4991433;28;20017;-72